Time;durP1;ratioP1;P1;durP2;ratioP2;P2;SDS_P1;SDS_P2;PMS_P1;PMS_P2;Temp;Humidity;BMP_temperature;BMP_pressure;BME280_temperature;BME280_humidity;BME280_pressure;Samples;Min_cycle;Max_cycle;Signal;HPM_P1;HPM_P2
2020/12/29 00:00:10;;;;;;;34.58;14.57;;;;;;;3.16;77.02;97341.78;4443860;32;20089;-73
2020/12/29 00:02:36;;;;;;;34.20;15.45;;;;;;;3.20;77.33;97342.38;4447442;32;20077;-74
2020/12/29 00:05:02;;;;;;;31.62;14.05;;;;;;;3.21;77.19;97343.91;4446062;32;20473;-73
2020/12/29 00:07:27;;;;;;;34.13;14.60;;;;;;;3.33;77.20;97338.12;4444123;32;20053;-74
2020/12/29 00:09:53;;;;;;;29.83;13.88;;;;;;;3.44;76.86;97343.91;4439754;32;20069;-74
2020/12/29 00:12:19;;;;;;;34.25;15.77;;;;;;;3.51;76.29;97343.56;4441055;32;20142;-74
2020/12/29 00:14:44;;;;;;;35.60;15.75;;;;;;;3.64;76.12;97349.66;4443741;32;20037;-73
2020/12/29 00:17:10;;;;;;;30.73;14.65;;;;;;;3.66;75.84;97358.31;4438121;32;20070;-73
2020/12/29 00:19:36;;;;;;;31.23;14.20;;;;;;;3.58;75.63;97354.31;4445223;32;20033;-73
2020/12/29 00:22:02;;;;;;;32.25;13.20;;;;;;;3.70;75.80;97356.09;4442193;32;20159;-73
2020/12/29 00:24:27;;;;;;;34.13;13.45;;;;;;;3.76;75.50;97357.00;4439065;32;20037;-74
2020/12/29 00:26:53;;;;;;;22.73;10.65;;;;;;;3.86;75.02;97357.66;4449403;32;20393;-73
2020/12/29 00:29:19;;;;;;;25.90;10.85;;;;;;;3.89;74.88;97359.50;4438791;32;20420;-74
2020/12/29 00:31:45;;;;;;;28.92;11.10;;;;;;;3.81;74.07;97361.88;4444976;32;20037;-73
2020/12/29 00:34:10;;;;;;;22.60;10.73;;;;;;;3.77;74.92;97360.50;4429646;27;20076;-73
2020/12/29 00:36:36;;;;;;;25.77;10.63;;;;;;;3.69;75.01;97362.88;4407579;32;20034;-74
2020/12/29 00:39:03;;;;;;;26.25;10.35;;;;;;;3.70;75.21;97366.44;4404214;32;20530;-74
2020/12/29 00:41:29;;;;;;;21.87;10.52;;;;;;;3.70;75.29;97366.44;4413931;32;20021;-74
2020/12/29 00:43:54;;;;;;;23.87;11.02;;;;;;;3.59;75.31;97371.78;4412059;32;20081;-74
2020/12/29 00:46:21;;;;;;;24.40;10.43;;;;;;;3.59;75.84;97375.31;4405567;32;20120;-74
2020/12/29 00:48:48;;;;;;;24.98;11.27;;;;;;;3.67;75.90;97368.16;4408413;32;20106;-74
2020/12/29 00:51:17;;;;;;;26.42;11.68;;;;;;;3.71;76.11;97365.97;4409745;32;20141;-73
2020/12/29 00:53:43;;;;;;;20.77;9.32;;;;;;;3.74;75.76;97367.03;4400548;32;20405;-74
2020/12/29 00:56:09;;;;;;;26.42;9.70;;;;;;;3.77;75.65;97379.97;4405420;32;20157;-73
2020/12/29 00:58:36;;;;;;;22.05;9.88;;;;;;;3.83;75.34;97375.31;4411372;32;20082;-73
2020/12/29 01:01:03;;;;;;;25.83;10.18;;;;;;;3.90;75.32;97375.72;4409481;32;20116;-73
2020/12/29 01:03:29;;;;;;;22.48;9.90;;;;;;;3.92;75.00;97378.81;4415009;32;20030;-74
2020/12/29 01:05:55;;;;;;;21.85;9.90;;;;;;;3.84;75.10;97369.28;4409433;32;20418;-73
2020/12/29 01:08:21;;;;;;;31.00;11.55;;;;;;;3.78;75.15;97367.62;4408359;32;20038;-73
2020/12/29 01:10:53;;;;;;;29.65;11.88;;;;;;;3.74;75.14;97375.38;4406169;32;20022;-74
2020/12/29 01:13:19;;;;;;;27.17;11.48;;;;;;;3.66;75.77;97382.53;4411028;32;20096;-73
2020/12/29 01:15:46;;;;;;;26.12;10.27;;;;;;;3.61;76.21;97378.41;4408418;32;20406;-73
2020/12/29 01:18:12;;;;;;;24.63;11.38;;;;;;;3.56;76.47;97379.03;4405650;32;20050;-74
2020/12/29 01:20:49;;;;;;;25.05;11.88;;;;;;;3.53;76.64;97387.56;4408250;32;20025;-73
2020/12/29 01:23:16;;;;;;;25.75;10.95;;;;;;;3.57;76.36;97377.81;4410412;32;20117;-74
2020/12/29 01:25:42;;;;;;;22.65;10.85;;;;;;;3.52;76.31;97380.47;4413684;32;20017;-73
2020/12/29 01:28:09;;;;;;;27.55;10.77;;;;;;;3.47;76.13;97384.66;4406495;32;20026;-73
2020/12/29 01:30:35;;;;;;;24.85;10.80;;;;;;;3.40;75.97;97382.22;4411565;32;20069;-73
2020/12/29 01:33:01;;;;;;;24.55;11.00;;;;;;;3.39;76.66;97379.91;4413929;32;20481;-73
2020/12/29 01:35:27;;;;;;;25.27;11.20;;;;;;;3.18;76.37;97378.16;4411410;32;20093;-73
2020/12/29 01:37:53;;;;;;;22.65;10.75;;;;;;;3.27;77.22;97386.47;4409220;32;20133;-73
2020/12/29 01:40:18;;;;;;;23.17;11.07;;;;;;;3.25;77.48;97383.41;4413534;32;20055;-73
2020/12/29 01:42:45;;;;;;;28.15;11.50;;;;;;;3.28;77.27;97388.03;4411032;32;20030;-73
2020/12/29 01:45:15;;;;;;;20.98;10.27;;;;;;;3.14;77.17;97385.91;4406868;32;20749;-73
2020/12/29 01:47:43;;;;;;;25.40;9.48;;;;;;;3.18;77.21;97389.28;4410681;32;20358;-73
2020/12/29 01:50:12;;;;;;;23.10;10.52;;;;;;;3.18;76.92;97401.19;4411620;32;20025;-73
2020/12/29 01:52:39;;;;;;;25.98;10.13;;;;;;;3.15;76.49;97398.56;4411151;32;20081;-73
2020/12/29 01:55:07;;;;;;;24.23;9.93;;;;;;;3.11;76.24;97397.97;4412976;32;20393;-73
2020/12/29 01:57:35;;;;;;;16.98;8.82;;;;;;;3.10;76.48;97399.97;4408464;32;20069;-73
2020/12/29 02:00:08;;;;;;;18.77;8.40;;;;;;;3.10;76.46;97402.00;4413132;32;20072;-73
2020/12/29 02:02:34;;;;;;;20.12;8.52;;;;;;;3.09;76.43;97395.66;4411536;32;20108;-73
2020/12/29 02:04:59;;;;;;;16.45;7.78;;;;;;;3.08;76.42;97407.22;4409176;32;20038;-73
2020/12/29 02:07:27;;;;;;;16.77;7.07;;;;;;;3.08;76.64;97408.00;4410373;32;20042;-73
2020/12/29 02:09:53;;;;;;;14.45;6.28;;;;;;;3.06;77.25;97406.91;4409031;32;20453;-73
2020/12/29 02:12:26;;;;;;;23.20;6.60;;;;;;;3.10;77.93;97411.06;4413364;32;20398;-73
2020/12/29 02:14:52;;;;;;;16.62;5.70;;;;;;;3.14;78.29;97411.69;4415182;32;20045;-73
2020/12/29 02:17:18;;;;;;;14.38;6.00;;;;;;;3.19;79.29;97421.41;4412516;32;20824;-73
2020/12/29 02:19:44;;;;;;;13.30;5.78;;;;;;;3.24;79.21;97421.53;4412759;32;20532;-73
2020/12/29 02:22:10;;;;;;;17.23;6.55;;;;;;;3.33;79.02;97423.47;4410945;32;20077;-73
2020/12/29 02:24:36;;;;;;;15.60;6.50;;;;;;;3.36;78.91;97430.88;4414128;32;20448;-73
2020/12/29 02:27:04;;;;;;;17.45;6.00;;;;;;;3.44;78.73;97438.41;4408073;32;20068;-73
2020/12/29 02:29:32;;;;;;;16.58;6.07;;;;;;;3.45;78.51;97436.41;4411802;32;20022;-73
2020/12/29 02:31:58;;;;;;;14.60;6.12;;;;;;;3.47;78.58;97429.12;4410400;32;20030;-73
2020/12/29 02:34:24;;;;;;;12.52;5.55;;;;;;;3.50;78.36;97435.75;4406385;32;20089;-73
2020/12/29 02:36:49;;;;;;;14.95;5.65;;;;;;;3.54;78.20;97442.69;4408891;32;20145;-73
2020/12/29 02:39:15;;;;;;;13.88;6.15;;;;;;;3.57;78.31;97432.63;4409370;32;20421;-73
2020/12/29 02:41:40;;;;;;;15.38;6.15;;;;;;;3.58;78.13;97439.72;4410970;32;20072;-73
2020/12/29 02:44:06;;;;;;;14.50;5.75;;;;;;;3.62;78.26;97445.91;4408860;32;20415;-73
2020/12/29 02:46:32;;;;;;;12.63;5.97;;;;;;;3.65;78.24;97436.62;4410057;32;20064;-73
2020/12/29 02:48:57;;;;;;;12.07;5.68;;;;;;;3.53;79.00;97437.59;4414522;32;20496;-73
2020/12/29 02:51:23;;;;;;;14.35;6.15;;;;;;;3.64;79.04;97449.72;4412688;32;20074;-73
2020/12/29 02:53:48;;;;;;;15.25;5.57;;;;;;;3.67;78.60;97454.34;4414232;32;20094;-73
2020/12/29 02:56:21;;;;;;;15.50;6.32;;;;;;;3.72;78.46;97456.47;4414750;32;20104;-73
2020/12/29 02:58:47;;;;;;;12.65;5.82;;;;;;;3.73;77.68;97462.81;4408672;32;20456;-72
2020/12/29 03:01:12;;;;;;;12.23;5.00;;;;;;;3.76;77.50;97464.66;4410839;32;20483;-72
2020/12/29 03:03:38;;;;;;;20.12;6.03;;;;;;;3.82;78.44;97469.09;4412119;32;20453;-73
2020/12/29 03:06:03;;;;;;;15.80;5.65;;;;;;;3.85;77.68;97456.25;4412184;32;20456;-73
2020/12/29 03:08:31;;;;;;;15.05;5.55;;;;;;;3.86;77.70;97455.00;4397251;32;20423;-72
2020/12/29 03:10:57;;;;;;;14.85;5.30;;;;;;;3.87;77.99;97454.53;4416779;32;20093;-73
2020/12/29 03:13:22;;;;;;;10.10;5.28;;;;;;;3.91;77.89;97457.16;4414186;32;20421;-73
2020/12/29 03:15:48;;;;;;;17.35;6.28;;;;;;;3.90;77.83;97456.37;4412575;32;20048;-73
2020/12/29 03:18:13;;;;;;;11.52;5.55;;;;;;;3.93;77.80;97460.97;4411488;32;20412;-72
2020/12/29 03:20:39;;;;;;;14.70;6.10;;;;;;;3.94;77.59;97467.31;4414582;32;20495;-72
2020/12/29 03:23:05;;;;;;;16.70;6.05;;;;;;;3.91;77.33;97468.28;4413276;32;20410;-73
2020/12/29 03:25:30;;;;;;;11.82;5.20;;;;;;;3.90;77.50;97461.19;4412856;32;20030;-73
2020/12/29 03:27:56;;;;;;;16.35;5.72;;;;;;;3.87;78.10;97476.03;4414270;32;20445;-73
2020/12/29 03:30:21;;;;;;;14.95;6.07;;;;;;;3.81;78.36;97472.34;4412643;32;20410;-73
2020/12/29 03:32:47;;;;;;;17.62;5.93;;;;;;;3.83;78.21;97473.41;4414884;32;20419;-73
2020/12/29 03:35:13;;;;;;;11.90;4.72;;;;;;;3.86;78.09;97471.69;4414418;32;20486;-73
2020/12/29 03:37:39;;;;;;;12.63;5.37;;;;;;;3.85;77.95;97475.72;4414230;32;20359;-72
2020/12/29 03:40:04;;;;;;;12.10;4.80;;;;;;;3.89;77.84;97479.88;4411583;32;20450;-73
2020/12/29 03:42:30;;;;;;;13.30;5.53;;;;;;;3.89;77.89;97482.66;4411913;32;20042;-72
2020/12/29 03:44:56;;;;;;;13.20;5.37;;;;;;;3.89;77.77;97482.66;4399990;32;20116;-73
2020/12/29 03:47:21;;;;;;;13.27;5.03;;;;;;;3.93;77.69;97483.25;4413335;32;20833;-73
2020/12/29 03:49:47;;;;;;;20.00;5.68;;;;;;;3.96;77.70;97493.41;4413169;32;20038;-73
2020/12/29 03:52:13;;;;;;;13.13;5.28;;;;;;;3.92;77.86;97484.50;4412727;32;20231;-73
2020/12/29 03:54:38;;;;;;;11.32;4.55;;;;;;;4.05;77.96;97490.59;4409641;32;20065;-73
2020/12/29 03:57:04;;;;;;;11.93;5.20;;;;;;;4.16;77.81;97490.06;4406823;32;20316;-73
2020/12/29 03:59:30;;;;;;;16.85;5.65;;;;;;;4.12;77.50;97484.66;4413534;32;20072;-73
2020/12/29 04:01:55;;;;;;;12.63;4.60;;;;;;;4.35;77.49;97485.87;4412131;32;20070;-73
2020/12/29 04:04:21;;;;;;;8.70;4.18;;;;;;;4.51;77.01;97481.91;4413894;32;20076;-73
2020/12/29 04:06:46;;;;;;;13.10;4.57;;;;;;;4.58;76.42;97485.09;4412581;32;20034;-73
2020/12/29 04:09:12;;;;;;;10.98;4.68;;;;;;;4.70;76.29;97486.84;4411280;32;20470;-73
2020/12/29 04:11:38;;;;;;;12.75;5.07;;;;;;;4.87;75.87;97493.50;4412436;32;20048;-73
2020/12/29 04:14:03;;;;;;;7.70;3.92;;;;;;;4.95;75.24;97502.25;4413749;32;20515;-73
2020/12/29 04:16:29;;;;;;;10.88;4.32;;;;;;;5.07;75.09;97496.41;4408746;32;20092;-73
2020/12/29 04:18:55;;;;;;;14.23;4.12;;;;;;;5.05;74.11;97510.03;4411652;32;20060;-73
2020/12/29 04:21:21;;;;;;;14.07;3.83;;;;;;;5.11;73.89;97507.34;4413773;32;20038;-73
2020/12/29 04:23:47;;;;;;;8.77;4.00;;;;;;;5.17;74.09;97513.78;4411859;32;20022;-73
2020/12/29 04:26:13;;;;;;;9.73;4.20;;;;;;;5.26;74.13;97513.69;4411624;32;20046;-73
2020/12/29 04:28:40;;;;;;;13.25;4.20;;;;;;;5.28;73.79;97522.34;4410659;32;20101;-73
2020/12/29 04:31:09;;;;;;;10.32;4.05;;;;;;;5.34;73.67;97528.78;4414853;32;20022;-73
2020/12/29 04:33:34;;;;;;;9.38;3.53;;;;;;;5.29;73.55;97523.87;4411295;32;20138;-72
2020/12/29 04:36:00;;;;;;;8.90;3.78;;;;;;;5.22;73.39;97529.84;4414222;32;20027;-73
2020/12/29 04:38:26;;;;;;;8.32;3.42;;;;;;;5.26;73.60;97538.78;4410909;32;20103;-73
2020/12/29 04:40:53;;;;;;;10.02;3.92;;;;;;;5.29;73.51;97546.97;4409790;32;20069;-73
2020/12/29 04:43:20;;;;;;;7.97;3.30;;;;;;;5.30;73.51;97534.56;4414157;32;20038;-73
2020/12/29 04:45:46;;;;;;;11.77;4.22;;;;;;;5.35;73.19;97531.09;4414718;32;20076;-73
2020/12/29 04:48:12;;;;;;;9.43;3.50;;;;;;;5.31;73.08;97532.53;4415652;32;20038;-73
2020/12/29 04:50:38;;;;;;;8.15;3.00;;;;;;;5.38;73.28;97538.50;4415939;32;20414;-73
2020/12/29 04:53:07;;;;;;;8.75;3.72;;;;;;;5.48;73.03;97541.94;4410868;32;20144;-73
2020/12/29 04:55:37;;;;;;;9.60;3.35;;;;;;;5.53;72.84;97541.28;4413089;32;20270;-73
2020/12/29 04:58:03;;;;;;;9.27;3.58;;;;;;;5.50;72.57;97543.00;4410615;32;20042;-73
2020/12/29 05:00:28;;;;;;;8.32;3.42;;;;;;;5.52;72.78;97548.88;4413851;32;20091;-73
2020/12/29 05:02:54;;;;;;;8.10;3.55;;;;;;;5.61;72.38;97557.13;4411440;32;20089;-73
2020/12/29 05:05:22;;;;;;;8.57;3.33;;;;;;;5.72;72.28;97557.34;4409977;32;20462;-73
2020/12/29 05:07:49;;;;;;;8.27;2.90;;;;;;;5.75;71.94;97556.38;4409471;32;20027;-73
2020/12/29 05:10:14;;;;;;;8.50;3.55;;;;;;;5.63;72.00;97554.66;4411800;32;20343;-73
2020/12/29 05:12:49;;;;;;;8.05;3.25;;;;;;;5.66;71.86;97558.47;4411552;32;20154;-73
2020/12/29 05:15:16;;;;;;;8.90;3.08;;;;;;;5.77;72.25;97564.25;4408408;32;20492;-73
2020/12/29 05:17:41;;;;;;;6.32;2.85;;;;;;;5.69;71.24;97561.09;4409398;32;20925;-73
2020/12/29 05:20:09;;;;;;;10.50;3.12;;;;;;;5.65;71.61;97562.53;4409845;32;20030;-73
2020/12/29 05:22:38;;;;;;;5.60;2.70;;;;;;;5.68;72.13;97573.47;4412581;32;20487;-73
2020/12/29 05:25:05;;;;;;;7.32;2.58;;;;;;;5.70;72.23;97568.19;4410640;32;20611;-73
2020/12/29 05:27:36;;;;;;;8.73;2.80;;;;;;;5.78;72.12;97582.53;4412734;32;20037;-73
2020/12/29 05:30:04;;;;;;;6.22;2.90;;;;;;;5.90;71.89;97579.44;4411353;32;20076;-73
2020/12/29 05:32:29;;;;;;;8.57;3.17;;;;;;;5.86;71.58;97583.72;4410833;32;20026;-73
2020/12/29 05:34:57;;;;;;;6.40;2.70;;;;;;;5.80;71.96;97578.00;4408135;32;20156;-73
2020/12/29 05:37:24;;;;;;;9.68;2.90;;;;;;;5.77;72.26;97586.56;4408870;32;20094;-73
2020/12/29 05:39:50;;;;;;;5.85;2.72;;;;;;;5.76;72.36;97587.81;4408374;32;20079;-73
2020/12/29 05:42:24;;;;;;;7.80;2.80;;;;;;;5.69;72.70;97591.00;4410361;32;21594;-73
2020/12/29 05:44:52;;;;;;;6.15;1.75;;;;;;;5.69;73.87;97588.97;4408974;32;20110;-73
2020/12/29 05:47:21;;;;;;;5.55;2.87;;;;;;;5.69;74.15;97593.78;4411233;32;20070;-73
2020/12/29 05:49:46;;;;;;;7.05;2.47;;;;;;;5.77;74.23;97606.84;4411448;32;20071;-72
2020/12/29 05:52:13;;;;;;;7.28;3.10;;;;;;;5.58;74.69;97601.94;4411497;32;20038;-73
2020/12/29 05:54:42;;;;;;;6.60;3.10;;;;;;;5.47;75.58;97604.56;4413125;32;20034;-72
2020/12/29 05:57:08;;;;;;;9.73;2.78;;;;;;;5.45;75.91;97607.81;4394589;32;20071;-73
2020/12/29 05:59:33;;;;;;;7.28;2.87;;;;;;;5.35;76.40;97611.94;4411322;32;20632;-73
2020/12/29 06:01:59;;;;;;;6.68;2.65;;;;;;;5.15;77.07;97617.38;4414773;32;20068;-71
2020/12/29 06:04:25;;;;;;;7.47;3.30;;;;;;;5.15;77.36;97614.59;4415388;32;20110;-71
2020/12/29 06:06:51;;;;;;;6.15;2.78;;;;;;;4.96;77.29;97621.56;4407378;32;20087;-71
2020/12/29 06:09:19;;;;;;;6.47;3.03;;;;;;;4.77;77.55;97627.75;4407137;32;20026;-71
2020/12/29 06:14:26;;;;;;;7.30;3.60;;;;;;;4.79;78.55;97637.16;3987073;32;15149926;-69
2020/12/29 06:16:54;;;;;;;12.35;4.22;;;;;;;4.79;78.55;97637.16;4436425;32;20037;-66
2020/12/29 06:22:08;;;;;;;8.52;3.47;;;;;;;4.49;80.51;97646.66;3988598;32;15025171;-67
2020/12/29 06:24:43;;;;;;;10.40;3.35;;;;;;;4.49;80.51;97646.66;4441820;32;20091;-67
2020/12/29 06:27:10;;;;;;;3.85;2.17;;;;;;;4.03;81.96;97636.97;4441372;32;20064;-67
2020/12/29 06:29:41;;;;;;;8.30;3.70;;;;;;;3.95;82.76;97646.87;4437158;32;20092;-67
2020/12/29 06:32:25;;;;;;;9.05;3.72;;;;;;;4.02;83.74;97644.53;4441018;32;20090;-67
2020/12/29 06:34:51;;;;;;;7.57;3.42;;;;;;;4.07;83.69;97643.13;4431494;32;20113;-69
2020/12/29 06:37:38;;;;;;;8.35;3.35;;;;;;;4.03;83.39;97648.84;4427278;32;20060;-69
2020/12/29 06:40:06;;;;;;;8.25;3.28;;;;;;;4.17;83.85;97641.84;4424822;32;20057;-69
2020/12/29 06:42:33;;;;;;;6.32;3.35;;;;;;;4.27;84.05;97648.16;4430291;32;20659;-69
2020/12/29 06:45:04;;;;;;;8.57;3.15;;;;;;;4.25;83.77;97640.25;4434272;32;20030;-68
2020/12/29 06:47:30;;;;;;;6.28;3.15;;;;;;;4.23;83.51;97648.31;4427559;32;20038;-69
2020/12/29 06:49:56;;;;;;;5.80;2.92;;;;;;;4.36;84.03;97648.88;4423893;32;20056;-69
2020/12/29 06:55:01;;;;;;;7.43;3.08;;;;;;;4.87;82.88;97669.00;3990766;32;15023253;-67
2020/12/29 07:00:19;;;;;;;8.30;3.15;;;;;;;4.99;82.72;97681.91;3989810;32;15026562;-67
2020/12/29 07:02:47;;;;;;;7.45;2.55;;;;;;;4.99;82.72;97681.91;4439215;32;20029;-66
2020/12/29 07:08:07;;;;;;;7.10;2.65;;;;;;;4.85;82.45;97690.22;3984583;32;15021961;-67
2020/12/29 07:10:44;;;;;;;8.43;2.67;;;;;;;4.85;82.45;97690.22;4442981;32;20342;-67
2020/12/29 07:13:14;;;;;;;4.93;2.65;;;;;;;4.32;83.36;97697.59;4439526;32;20399;-67
2020/12/29 07:15:48;;;;;;;6.78;2.70;;;;;;;4.23;84.05;97697.66;4441386;32;20190;-67
2020/12/29 07:20:58;;;;;;;8.38;2.40;;;;;;;4.36;83.10;97717.69;3989304;32;15022239;-69
2020/12/29 07:23:27;;;;;;;5.93;2.50;;;;;;;4.36;83.10;97717.69;4444899;32;20029;-69
2020/12/29 07:25:57;;;;;;;10.23;3.03;;;;;;;3.83;84.15;97722.91;4443215;32;20030;-69
2020/12/29 07:28:24;;;;;;;5.70;2.70;;;;;;;3.69;84.84;97723.56;4442582;32;20076;-69
2020/12/29 07:30:51;;;;;;;4.90;2.37;;;;;;;3.68;85.75;97719.22;4445111;32;20034;-69
2020/12/29 07:33:21;;;;;;;4.62;2.40;;;;;;;3.61;85.91;97728.69;4435698;32;20033;-69
2020/12/29 07:35:47;;;;;;;5.45;2.55;;;;;;;3.54;85.83;97734.56;4433669;32;20512;-69
2020/12/29 07:38:15;;;;;;;4.30;2.10;;;;;;;3.44;86.34;97740.59;4437120;32;20119;-69
2020/12/29 07:40:41;;;;;;;4.65;2.05;;;;;;;3.47;86.53;97737.63;4436352;32;20162;-69
2020/12/29 07:43:08;;;;;;;3.62;2.17;;;;;;;3.48;86.71;97746.75;4432153;32;20064;-69
2020/12/29 07:45:34;;;;;;;3.60;1.90;;;;;;;3.41;86.43;97752.63;4436461;32;20014;-69
2020/12/29 07:48:01;;;;;;;5.57;2.72;;;;;;;3.43;86.97;97755.69;4433330;32;20033;-69
2020/12/29 07:50:28;;;;;;;2.83;1.60;;;;;;;3.51;87.35;97752.16;4435002;32;20534;-69
2020/12/29 07:53:14;;;;;;;6.37;2.30;;;;;;;3.30;86.69;97755.84;4437031;32;20026;-69
2020/12/29 07:55:41;;;;;;;2.20;1.40;;;;;;;3.26;86.54;97763.56;4435186;32;20346;-70
2020/12/29 07:58:08;;;;;;;3.87;1.85;;;;;;;3.23;87.40;97758.94;4433878;32;20108;-70
2020/12/29 08:00:36;;;;;;;3.33;1.87;;;;;;;3.21;87.56;97763.41;4437781;32;20038;-70
2020/12/29 08:03:04;;;;;;;5.00;1.60;;;;;;;3.13;87.40;97764.94;4434541;32;20144;-70
2020/12/29 08:05:31;;;;;;;5.03;1.98;;;;;;;3.16;87.66;97769.59;4434199;32;20065;-70
2020/12/29 08:07:59;;;;;;;7.07;2.25;;;;;;;3.18;87.69;97767.09;4437034;32;20065;-71
2020/12/29 08:10:27;;;;;;;4.62;2.10;;;;;;;3.18;88.04;97778.22;4435778;32;20043;-71
2020/12/29 08:13:03;;;;;;;9.65;2.60;;;;;;;3.26;88.57;97780.25;4436797;32;20413;-70
2020/12/29 08:18:14;;;;;;;3.65;2.00;;;;;;;3.75;87.45;97814.22;3985026;32;15022842;-70
2020/12/29 08:20:57;;;;;;;4.05;2.17;;;;;;;3.75;87.45;97814.22;4431406;32;20051;-70
2020/12/29 08:23:25;;;;;;;3.08;1.60;;;;;;;3.30;87.92;97807.88;4432600;32;20454;-70
2020/12/29 08:25:57;;;;;;;7.97;2.83;;;;;;;3.26;88.06;97821.94;4437635;32;20091;-70
2020/12/29 08:28:24;;;;;;;3.90;2.22;;;;;;;3.31;88.42;97820.53;4429906;32;20464;-70
2020/12/29 08:30:50;;;;;;;11.00;5.62;;;;;;;3.30;88.45;97819.75;4433738;32;20041;-70
2020/12/29 08:33:21;;;;;;;4.78;2.22;;;;;;;3.29;88.36;97831.34;4432695;32;20029;-70
2020/12/29 08:35:50;;;;;;;2.75;1.52;;;;;;;3.33;88.66;97845.84;4422524;32;20399;-71
2020/12/29 08:43:44;;;;;;;2.22;1.40;;;;;;;3.82;87.63;97866.00;3985970;32;15022648;-69
2020/12/29 08:46:12;;;;;;;2.33;1.23;;;;;;;3.30;88.08;97866.22;4443605;32;20025;-70
2020/12/29 08:48:39;;;;;;;1.77;1.10;;;;;;;3.25;88.15;97866.84;4438066;32;20049;-70
2020/12/29 08:51:26;;;;;;;2.70;1.20;;;;;;;3.24;88.44;97863.28;4439909;32;20101;-70
2020/12/29 08:53:53;;;;;;;4.50;1.80;;;;;;;3.25;88.32;97867.59;4441104;32;20520;-70
2020/12/29 08:56:26;;;;;;;3.08;2.00;;;;;;;3.33;88.73;97877.19;4438062;32;20029;-70
2020/12/29 08:58:54;;;;;;;5.10;2.08;;;;;;;3.43;89.14;97881.53;4440187;32;20497;-70
2020/12/29 09:01:37;;;;;;;2.70;1.75;;;;;;;3.50;89.40;97891.63;4437249;32;20122;-69
2020/12/29 09:09:39;;;;;;;2.85;1.87;;;;;;;4.08;86.66;97914.53;3984373;32;15023961;-67
2020/12/29 09:12:14;;;;;;;3.90;2.40;;;;;;;4.08;86.66;97914.53;4443017;32;20017;-70
2020/12/29 09:14:57;;;;;;;3.92;2.15;;;;;;;3.76;87.66;97917.91;4442998;32;20499;-70
2020/12/29 09:17:27;;;;;;;10.20;3.35;;;;;;;3.90;88.23;97918.06;4437724;32;20048;-70
2020/12/29 09:28:24;;;;;;;5.80;3.67;;;;;;;4.76;85.81;97958.44;3984261;32;15028961;-71
2020/12/29 09:33:30;;;;;;;6.57;3.75;;;;;;;4.78;85.25;97961.53;3980611;32;15022783;-71
2020/12/29 09:35:59;;;;;;;5.07;3.00;;;;;;;4.78;85.25;97961.53;4436656;32;20057;-69
2020/12/29 09:38:25;;;;;;;5.70;3.85;;;;;;;4.42;86.12;97958.00;4431777;32;20041;-69
2020/12/29 09:40:52;;;;;;;7.43;3.90;;;;;;;4.46;86.18;97959.41;4432728;32;20110;-69
2020/12/29 09:43:18;;;;;;;11.80;3.47;;;;;;;4.50;86.01;97967.56;4433802;32;20040;-69
2020/12/29 09:45:45;;;;;;;5.03;2.50;;;;;;;4.41;85.26;97964.78;4432995;32;20029;-70
2020/12/29 09:48:12;;;;;;;6.93;2.78;;;;;;;4.48;85.62;97970.06;4433364;32;20042;-70
2020/12/29 09:50:38;;;;;;;13.07;2.90;;;;;;;4.54;85.41;97987.69;4437048;32;20030;-69
2020/12/29 09:53:03;;;;;;;5.22;2.50;;;;;;;4.61;85.79;97992.94;4434025;32;20053;-69
2020/12/29 09:55:29;;;;;;;4.55;2.55;;;;;;;4.62;85.49;97998.06;4435049;32;20163;-70
2020/12/29 09:57:56;;;;;;;5.78;2.85;;;;;;;4.71;85.47;97995.28;4432443;32;20033;-70
2020/12/29 10:00:22;;;;;;;5.28;2.92;;;;;;;4.78;85.04;97994.94;4434200;32;20105;-70
2020/12/29 10:02:47;;;;;;;12.52;4.70;;;;;;;4.89;85.28;98008.41;4438998;32;20029;-69
2020/12/29 10:05:13;;;;;;;8.82;3.20;;;;;;;4.82;84.14;98011.50;4435004;32;20454;-69
2020/12/29 10:07:38;;;;;;;8.73;3.03;;;;;;;4.85;84.33;98007.78;4435305;32;20425;-69
2020/12/29 10:10:04;;;;;;;7.50;3.80;;;;;;;4.99;84.81;98021.84;4436779;32;20030;-69
2020/12/29 10:12:30;;;;;;;8.18;3.87;;;;;;;4.98;84.44;98028.69;4439227;32;20167;-69
2020/12/29 10:14:56;;;;;;;7.12;3.80;;;;;;;5.07;84.22;98036.25;4434888;32;20097;-69
2020/12/29 10:17:22;;;;;;;20.98;5.87;;;;;;;4.94;82.44;98039.19;4436163;32;20077;-69
2020/12/29 10:19:48;;;;;;;13.30;4.45;;;;;;;5.03;83.54;98041.22;4434376;32;20136;-69
2020/12/29 10:22:13;;;;;;;9.27;4.93;;;;;;;5.04;83.51;98042.75;4434990;32;20090;-69
2020/12/29 10:24:39;;;;;;;6.87;4.07;;;;;;;5.14;83.71;98044.28;4431868;32;20051;-69
2020/12/29 10:27:05;;;;;;;7.40;4.22;;;;;;;5.15;83.11;98049.37;4436412;32;20026;-69
2020/12/29 10:29:30;;;;;;;9.88;4.43;;;;;;;5.25;83.76;98059.28;4431888;32;21158;-69
2020/12/29 10:31:56;;;;;;;11.23;4.45;;;;;;;5.37;84.29;98065.94;4437844;32;20450;-69
2020/12/29 10:34:21;;;;;;;6.32;4.20;;;;;;;5.40;83.87;98071.31;4434538;32;20489;-70
2020/12/29 10:36:47;;;;;;;11.85;4.18;;;;;;;5.30;82.89;98071.81;4432084;32;20100;-70
2020/12/29 10:39:14;;;;;;;7.87;3.87;;;;;;;5.38;83.52;98079.41;4431243;32;20147;-70
2020/12/29 10:41:40;;;;;;;8.57;3.90;;;;;;;5.39;82.82;98089.31;4429941;32;20073;-70
2020/12/29 10:44:08;;;;;;;6.47;3.67;;;;;;;5.51;83.37;98084.78;4425398;32;20025;-70
2020/12/29 10:46:33;;;;;;;10.10;3.83;;;;;;;5.43;82.17;98091.94;4426491;32;20070;-70
2020/12/29 10:48:59;;;;;;;9.40;3.65;;;;;;;5.52;82.41;98089.13;4426060;32;20475;-70
2020/12/29 10:51:26;;;;;;;8.13;4.62;;;;;;;5.53;82.23;98088.66;4423901;32;20052;-70
2020/12/29 10:53:53;;;;;;;9.68;4.05;;;;;;;5.66;82.95;98094.84;4424103;32;20063;-70
2020/12/29 10:56:19;;;;;;;9.05;3.67;;;;;;;5.79;82.96;98098.19;4424416;32;20034;-70
2020/12/29 10:58:45;;;;;;;11.02;4.07;;;;;;;5.97;83.72;98103.75;4426870;32;20100;-70
2020/12/29 11:01:12;;;;;;;6.80;3.45;;;;;;;6.06;82.48;98112.09;4424624;32;20069;-70
2020/12/29 11:03:38;;;;;;;6.15;3.05;;;;;;;6.00;80.39;98118.78;4422847;32;20122;-70
2020/12/29 11:06:13;;;;;;;6.50;3.33;;;;;;;5.93;80.50;98119.88;4425724;32;20047;-70
2020/12/29 11:08:39;;;;;;;4.60;3.22;;;;;;;6.14;80.98;98123.69;4425484;32;20068;-70
2020/12/29 11:11:05;;;;;;;11.98;3.65;;;;;;;6.28;81.55;98119.41;4420861;32;20057;-70
2020/12/29 11:13:31;;;;;;;8.93;3.30;;;;;;;6.43;81.41;98125.84;4424061;32;20045;-71
2020/12/29 11:15:56;;;;;;;10.15;2.95;;;;;;;6.57;80.76;98137.12;4423256;32;20079;-71
2020/12/29 11:18:22;;;;;;;7.53;2.70;;;;;;;6.52;79.90;98129.38;4422929;32;20732;-70
2020/12/29 11:20:52;;;;;;;5.75;2.80;;;;;;;6.42;77.70;98136.28;4424040;32;20070;-70
2020/12/29 11:23:18;;;;;;;6.57;2.55;;;;;;;6.64;80.03;98138.78;4423620;32;20066;-71
2020/12/29 11:25:44;;;;;;;4.62;2.35;;;;;;;6.54;79.38;98152.03;4424537;32;20033;-71
2020/12/29 11:28:09;;;;;;;5.15;2.40;;;;;;;6.51;78.82;98150.19;4419378;32;20038;-70
2020/12/29 11:30:35;;;;;;;5.45;2.62;;;;;;;6.61;78.43;98154.47;4421813;32;20034;-71
2020/12/29 11:33:00;;;;;;;6.22;3.15;;;;;;;6.73;79.05;98156.28;4423870;32;20124;-70
2020/12/29 11:35:26;;;;;;;6.22;3.08;;;;;;;6.77;78.61;98165.25;4424433;32;20014;-70
2020/12/29 11:37:52;;;;;;;8.02;2.85;;;;;;;6.97;79.27;98165.41;4424904;32;20380;-70
2020/12/29 11:40:18;;;;;;;11.65;2.40;;;;;;;6.99;78.12;98167.72;4426517;32;20394;-70
2020/12/29 11:42:44;;;;;;;7.20;2.72;;;;;;;7.03;77.65;98179.53;4428955;32;20038;-70
2020/12/29 11:45:09;;;;;;;13.45;2.80;;;;;;;7.12;79.03;98171.09;4425579;32;20500;-71
2020/12/29 11:47:35;;;;;;;8.63;2.60;;;;;;;7.12;78.25;98180.22;4419558;32;20438;-70
2020/12/29 11:50:01;;;;;;;6.65;2.53;;;;;;;7.24;78.44;98186.84;4423179;32;20465;-70
2020/12/29 11:52:26;;;;;;;3.97;2.03;;;;;;;7.28;78.46;98187.44;4424078;32;20366;-70
2020/12/29 11:54:52;;;;;;;12.13;3.33;;;;;;;7.32;77.40;98188.00;4420694;32;20464;-70
2020/12/29 11:57:18;;;;;;;9.70;2.53;;;;;;;7.45;77.96;98196.91;4417184;32;20553;-70
2020/12/29 11:59:45;;;;;;;5.72;2.40;;;;;;;7.39;77.18;98196.03;4424592;32;20093;-71
2020/12/29 12:02:10;;;;;;;7.55;2.83;;;;;;;7.36;77.02;98197.75;4424489;32;20072;-71
2020/12/29 12:04:36;;;;;;;11.60;3.15;;;;;;;7.42;76.61;98206.25;4424590;32;20022;-71
2020/12/29 12:07:05;;;;;;;10.38;2.97;;;;;;;7.44;77.24;98206.56;4422807;32;20058;-71
2020/12/29 12:09:31;;;;;;;10.43;3.03;;;;;;;7.56;78.37;98214.72;4422682;32;20096;-71
2020/12/29 12:11:58;;;;;;;6.03;2.70;;;;;;;7.66;78.38;98218.97;4424677;32;20060;-71
2020/12/29 12:14:24;;;;;;;6.80;3.35;;;;;;;7.69;78.61;98223.63;4418806;32;20038;-71
2020/12/29 12:16:49;;;;;;;7.93;2.67;;;;;;;7.52;76.90;98224.53;4421420;32;20102;-71